sensor_id;sensor_type;location;lat;lon;timestamp;pressure;altitude;pressure_sealevel;temperature;humidity
63700;BME280;49845;47.130;142.766;2023-05-12T00:01:21;100989.31;;;10.98;40.83
63700;BME280;49845;47.130;142.766;2023-05-12T00:03:53;100991.09;;;10.93;41.39
63700;BME280;49845;47.130;142.766;2023-05-12T00:06:24;100957.91;;;10.97;43.88
63700;BME280;49845;47.130;142.766;2023-05-12T00:08:55;100979.28;;;11.54;43.69
63700;BME280;49845;47.130;142.766;2023-05-12T00:11:26;100975.59;;;11.74;40.49
63700;BME280;49845;47.130;142.766;2023-05-12T00:13:56;100973.97;;;11.60;40.38
63700;BME280;49845;47.130;142.766;2023-05-12T00:16:27;100982.81;;;11.47;40.22
63700;BME280;49845;47.130;142.766;2023-05-12T00:18:59;100982.72;;;11.59;41.13
63700;BME280;49845;47.130;142.766;2023-05-12T00:21:30;100977.31;;;11.75;42.09
63700;BME280;49845;47.130;142.766;2023-05-12T00:24:00;100975.34;;;12.01;40.44
63700;BME280;49845;47.130;142.766;2023-05-12T00:26:31;100975.41;;;11.95;42.58
63700;BME280;49845;47.130;142.766;2023-05-12T00:29:01;100967.19;;;12.27;42.83
63700;BME280;49845;47.130;142.766;2023-05-12T00:31:32;100969.56;;;12.47;43.13
63700;BME280;49845;47.130;142.766;2023-05-12T00:34:04;100969.91;;;12.85;43.54
63700;BME280;49845;47.130;142.766;2023-05-12T00:36:35;100958.63;;;12.81;42.43
63700;BME280;49845;47.130;142.766;2023-05-12T00:39:05;100960.16;;;12.94;41.99
63700;BME280;49845;47.130;142.766;2023-05-12T00:41:36;100957.66;;;12.88;41.44
63700;BME280;49845;47.130;142.766;2023-05-12T00:44:06;100955.53;;;13.12;42.69
63700;BME280;49845;47.130;142.766;2023-05-12T00:46:37;100954.41;;;13.25;41.37
63700;BME280;49845;47.130;142.766;2023-05-12T00:49:10;100937.25;;;13.06;40.79
63700;BME280;49845;47.130;142.766;2023-05-12T00:51:43;100959.72;;;13.24;40.49
63700;BME280;49845;47.130;142.766;2023-05-12T00:54:13;100951.00;;;13.20;39.06
63700;BME280;49845;47.130;142.766;2023-05-12T00:56:44;100953.44;;;13.34;39.82
63700;BME280;49845;47.130;142.766;2023-05-12T00:59:14;100943.50;;;13.53;41.60
63700;BME280;49845;47.130;142.766;2023-05-12T01:01:48;100942.19;;;13.77;41.53
63700;BME280;49845;47.130;142.766;2023-05-12T01:04:21;100942.78;;;13.93;40.67
63700;BME280;49845;47.130;142.766;2023-05-12T01:06:55;100946.78;;;13.64;38.61
63700;BME280;49845;47.130;142.766;2023-05-12T01:09:27;100932.75;;;13.65;39.32
63700;BME280;49845;47.130;142.766;2023-05-12T01:11:57;100936.56;;;13.49;36.85
63700;BME280;49845;47.130;142.766;2023-05-12T01:14:28;100898.50;;;13.23;39.48
63700;BME280;49845;47.130;142.766;2023-05-12T01:16:59;100933.88;;;12.98;35.15
63700;BME280;49845;47.130;142.766;2023-05-12T01:19:40;100922.47;;;12.41;36.24
63700;BME280;49845;47.130;142.766;2023-05-12T01:22:10;100921.66;;;12.35;36.84
63700;BME280;49845;47.130;142.766;2023-05-12T01:24:45;100915.53;;;12.37;36.99
63700;BME280;49845;47.130;142.766;2023-05-12T01:27:20;100926.44;;;12.00;36.29
63700;BME280;49845;47.130;142.766;2023-05-12T01:29:51;100929.19;;;11.91;37.74
63700;BME280;49845;47.130;142.766;2023-05-12T01:32:22;100916.88;;;11.99;37.86
63700;BME280;49845;47.130;142.766;2023-05-12T01:34:53;100924.53;;;12.15;38.21
63700;BME280;49845;47.130;142.766;2023-05-12T01:37:24;100923.03;;;11.95;37.79
63700;BME280;49845;47.130;142.766;2023-05-12T01:39:55;100917.69;;;12.03;36.87
63700;BME280;49845;47.130;142.766;2023-05-12T01:42:27;100865.09;;;12.20;37.39
63700;BME280;49845;47.130;142.766;2023-05-12T01:44:58;100906.13;;;12.84;38.37
63700;BME280;49845;47.130;142.766;2023-05-12T01:47:28;100921.22;;;13.24;37.67
63700;BME280;49845;47.130;142.766;2023-05-12T01:49:59;100914.31;;;13.17;36.72
63700;BME280;49845;47.130;142.766;2023-05-12T01:52:29;100899.16;;;12.80;36.30
63700;BME280;49845;47.130;142.766;2023-05-12T01:55:00;100896.31;;;12.38;37.42
63700;BME280;49845;47.130;142.766;2023-05-12T01:57:35;100898.63;;;11.90;37.30
63700;BME280;49845;47.130;142.766;2023-05-12T02:00:06;100891.69;;;11.89;37.49
63700;BME280;49845;47.130;142.766;2023-05-12T02:02:40;100893.09;;;12.15;37.63
63700;BME280;49845;47.130;142.766;2023-05-12T02:05:11;100884.00;;;12.43;37.55
63700;BME280;49845;47.130;142.766;2023-05-12T02:07:42;100884.59;;;12.62;38.36
63700;BME280;49845;47.130;142.766;2023-05-12T02:10:12;100887.66;;;12.90;38.15
63700;BME280;49845;47.130;142.766;2023-05-12T02:12:44;100888.41;;;12.99;37.69
63700;BME280;49845;47.130;142.766;2023-05-12T02:15:14;100886.31;;;13.19;37.68
63700;BME280;49845;47.130;142.766;2023-05-12T02:17:45;100871.19;;;13.35;35.95
63700;BME280;49845;47.130;142.766;2023-05-12T02:20:17;100881.06;;;13.19;36.49
63700;BME280;49845;47.130;142.766;2023-05-12T02:22:48;100871.84;;;12.95;37.90
63700;BME280;49845;47.130;142.766;2023-05-12T02:25:18;100875.97;;;13.10;37.13
63700;BME280;49845;47.130;142.766;2023-05-12T02:27:51;100874.25;;;13.09;37.71
63700;BME280;49845;47.130;142.766;2023-05-12T02:30:21;100866.59;;;12.95;36.19
63700;BME280;49845;47.130;142.766;2023-05-12T02:32:55;100866.38;;;13.09;37.02
63700;BME280;49845;47.130;142.766;2023-05-12T02:35:25;100855.97;;;13.54;38.75
63700;BME280;49845;47.130;142.766;2023-05-12T02:37:56;100862.03;;;14.01;37.62
63700;BME280;49845;47.130;142.766;2023-05-12T02:40:26;100862.56;;;14.17;37.01
63700;BME280;49845;47.130;142.766;2023-05-12T02:42:58;100866.34;;;14.44;37.00
63700;BME280;49845;47.130;142.766;2023-05-12T02:45:29;100857.38;;;14.54;35.61
63700;BME280;49845;47.130;142.766;2023-05-12T02:47:59;100851.91;;;14.63;35.85
63700;BME280;49845;47.130;142.766;2023-05-12T02:50:30;100855.00;;;14.81;36.32
63700;BME280;49845;47.130;142.766;2023-05-12T02:53:00;100858.03;;;14.64;35.81
63700;BME280;49845;47.130;142.766;2023-05-12T02:55:31;100840.25;;;14.35;35.48
63700;BME280;49845;47.130;142.766;2023-05-12T02:58:03;100851.03;;;14.22;35.99
63700;BME280;49845;47.130;142.766;2023-05-12T03:00:33;100845.50;;;14.35;36.90
63700;BME280;49845;47.130;142.766;2023-05-12T03:03:04;100836.72;;;14.75;37.71
63700;BME280;49845;47.130;142.766;2023-05-12T03:05:35;100834.72;;;15.19;37.63
63700;BME280;49845;47.130;142.766;2023-05-12T03:08:05;100829.28;;;15.25;36.48
63700;BME280;49845;47.130;142.766;2023-05-12T03:10:36;100828.13;;;15.02;34.08
63700;BME280;49845;47.130;142.766;2023-05-12T03:13:08;100823.66;;;14.72;34.22
63700;BME280;49845;47.130;142.766;2023-05-12T03:15:39;100829.53;;;14.44;31.99
63700;BME280;49845;47.130;142.766;2023-05-12T03:18:09;100827.59;;;14.54;34.36
63700;BME280;49845;47.130;142.766;2023-05-12T03:20:40;100828.38;;;14.93;34.57
63700;BME280;49845;47.130;142.766;2023-05-12T03:23:10;100823.44;;;14.81;31.68
63700;BME280;49845;47.130;142.766;2023-05-12T03:25:41;100827.31;;;14.64;33.51
63700;BME280;49845;47.130;142.766;2023-05-12T03:28:13;100821.84;;;14.74;34.03
63700;BME280;49845;47.130;142.766;2023-05-12T03:30:43;100820.84;;;15.14;35.28
63700;BME280;49845;47.130;142.766;2023-05-12T03:33:14;100819.97;;;15.46;35.42
63700;BME280;49845;47.130;142.766;2023-05-12T03:35:44;100817.66;;;15.65;34.90
63700;BME280;49845;47.130;142.766;2023-05-12T03:38:14;100811.66;;;15.60;34.48
63700;BME280;49845;47.130;142.766;2023-05-12T03:40:45;100814.56;;;15.50;35.18
63700;BME280;49845;47.130;142.766;2023-05-12T03:43:21;100803.56;;;15.36;35.54
63700;BME280;49845;47.130;142.766;2023-05-12T03:45:52;100795.34;;;15.16;33.63
63700;BME280;49845;47.130;142.766;2023-05-12T03:48:22;100808.00;;;15.34;35.40
63700;BME280;49845;47.130;142.766;2023-05-12T03:50:53;100804.28;;;15.41;33.30
63700;BME280;49845;47.130;142.766;2023-05-12T03:53:23;100802.47;;;15.43;35.61
63700;BME280;49845;47.130;142.766;2023-05-12T03:55:54;100802.50;;;15.42;33.30
63700;BME280;49845;47.130;142.766;2023-05-12T03:58:26;100790.19;;;15.42;34.94
63700;BME280;49845;47.130;142.766;2023-05-12T04:00:57;100784.47;;;15.28;35.17
63700;BME280;49845;47.130;142.766;2023-05-12T04:03:29;100743.91;;;14.70;34.00
63700;BME280;49845;47.130;142.766;2023-05-12T04:06:00;100724.53;;;14.38;34.77
63700;BME280;49845;47.130;142.766;2023-05-12T04:08:31;100793.13;;;15.00;35.08
63700;BME280;49845;47.130;142.766;2023-05-12T04:11:01;100791.69;;;15.20;35.49
63700;BME280;49845;47.130;142.766;2023-05-12T04:13:33;100771.31;;;15.28;33.97
63700;BME280;49845;47.130;142.766;2023-05-12T04:16:05;100752.00;;;14.96;34.66
63700;BME280;49845;47.130;142.766;2023-05-12T04:18:35;100768.41;;;15.37;34.40
63700;BME280;49845;47.130;142.766;2023-05-12T04:21:06;100777.84;;;15.44;33.96
63700;BME280;49845;47.130;142.766;2023-05-12T04:23:36;100769.31;;;15.36;33.51
63700;BME280;49845;47.130;142.766;2023-05-12T04:26:07;100772.59;;;15.44;35.46
63700;BME280;49845;47.130;142.766;2023-05-12T04:28:39;100771.75;;;15.75;33.70
63700;BME280;49845;47.130;142.766;2023-05-12T04:31:10;100754.81;;;15.52;31.45
63700;BME280;49845;47.130;142.766;2023-05-12T04:33:40;100761.72;;;15.57;33.85
63700;BME280;49845;47.130;142.766;2023-05-12T04:36:14;100757.75;;;15.73;33.92
63700;BME280;49845;47.130;142.766;2023-05-12T04:38:45;100747.66;;;15.58;32.73
63700;BME280;49845;47.130;142.766;2023-05-12T04:41:15;100741.47;;;15.59;33.80
63700;BME280;49845;47.130;142.766;2023-05-12T04:43:47;100744.91;;;15.31;33.81
63700;BME280;49845;47.130;142.766;2023-05-12T04:46:21;100748.84;;;15.15;34.20
63700;BME280;49845;47.130;142.766;2023-05-12T04:48:52;100747.91;;;15.48;35.89
63700;BME280;49845;47.130;142.766;2023-05-12T04:51:22;100742.81;;;15.42;33.38
63700;BME280;49845;47.130;142.766;2023-05-12T04:53:53;100742.38;;;15.58;34.70
63700;BME280;49845;47.130;142.766;2023-05-12T04:56:26;100727.69;;;15.80;35.50
63700;BME280;49845;47.130;142.766;2023-05-12T04:58:58;100688.34;;;15.74;34.93
63700;BME280;49845;47.130;142.766;2023-05-12T05:01:29;100736.91;;;15.95;34.05
63700;BME280;49845;47.130;142.766;2023-05-12T05:03:59;100732.38;;;15.99;33.53
63700;BME280;49845;47.130;142.766;2023-05-12T05:06:30;100733.63;;;15.87;33.66
63700;BME280;49845;47.130;142.766;2023-05-12T05:09:00;100731.22;;;15.79;34.41
63700;BME280;49845;47.130;142.766;2023-05-12T05:11:31;100727.38;;;15.89;34.27
63700;BME280;49845;47.130;142.766;2023-05-12T05:14:03;100695.34;;;15.45;33.06
63700;BME280;49845;47.130;142.766;2023-05-12T05:16:33;100723.22;;;15.52;34.53
63700;BME280;49845;47.130;142.766;2023-05-12T05:19:04;100730.28;;;15.50;34.30
63700;BME280;49845;47.130;142.766;2023-05-12T05:21:48;100723.03;;;15.59;34.80
63700;BME280;49845;47.130;142.766;2023-05-12T05:24:19;100719.81;;;15.79;34.12
63700;BME280;49845;47.130;142.766;2023-05-12T05:26:50;100714.19;;;15.60;33.90
63700;BME280;49845;47.130;142.766;2023-05-12T05:29:22;100723.84;;;15.61;34.24
63700;BME280;49845;47.130;142.766;2023-05-12T05:31:54;100719.19;;;15.69;35.27
63700;BME280;49845;47.130;142.766;2023-05-12T05:34:24;100720.41;;;15.88;35.14
63700;BME280;49845;47.130;142.766;2023-05-12T05:36:55;100716.84;;;15.89;33.28
63700;BME280;49845;47.130;142.766;2023-05-12T05:39:25;100724.13;;;15.50;33.09
63700;BME280;49845;47.130;142.766;2023-05-12T05:41:58;100718.47;;;15.34;34.68
63700;BME280;49845;47.130;142.766;2023-05-12T05:44:30;100711.56;;;15.30;34.77
63700;BME280;49845;47.130;142.766;2023-05-12T05:47:00;100703.84;;;15.24;35.48
63700;BME280;49845;47.130;142.766;2023-05-12T05:49:31;100708.38;;;15.19;34.47
63700;BME280;49845;47.130;142.766;2023-05-12T05:52:02;100725.69;;;14.95;34.97
63700;BME280;49845;47.130;142.766;2023-05-12T05:54:32;100713.44;;;14.95;35.73
63700;BME280;49845;47.130;142.766;2023-05-12T05:57:03;100714.16;;;15.00;35.39
63700;BME280;49845;47.130;142.766;2023-05-12T05:59:35;100712.94;;;15.12;36.22
63700;BME280;49845;47.130;142.766;2023-05-12T06:02:06;100708.16;;;15.26;35.79
63700;BME280;49845;47.130;142.766;2023-05-12T06:04:37;100714.16;;;15.31;34.97
63700;BME280;49845;47.130;142.766;2023-05-12T06:07:07;100708.91;;;15.00;34.71
63700;BME280;49845;47.130;142.766;2023-05-12T06:09:37;100709.44;;;14.80;36.13
63700;BME280;49845;47.130;142.766;2023-05-12T06:12:08;100712.78;;;14.53;37.17
63700;BME280;49845;47.130;142.766;2023-05-12T06:14:40;100713.06;;;14.75;37.15
63700;BME280;49845;47.130;142.766;2023-05-12T06:17:10;100709.88;;;14.96;37.39
63700;BME280;49845;47.130;142.766;2023-05-12T06:19:41;100711.88;;;14.88;37.56
63700;BME280;49845;47.130;142.766;2023-05-12T06:22:15;100712.66;;;14.90;38.35
63700;BME280;49845;47.130;142.766;2023-05-12T06:24:45;100714.06;;;15.03;38.51
63700;BME280;49845;47.130;142.766;2023-05-12T06:27:15;100723.78;;;15.01;37.03
63700;BME280;49845;47.130;142.766;2023-05-12T06:29:48;100714.50;;;14.88;37.08
63700;BME280;49845;47.130;142.766;2023-05-12T06:32:20;100723.16;;;14.92;37.62
63700;BME280;49845;47.130;142.766;2023-05-12T06:34:50;100732.72;;;14.96;36.57
63700;BME280;49845;47.130;142.766;2023-05-12T06:37:21;100735.47;;;14.91;37.29
63700;BME280;49845;47.130;142.766;2023-05-12T06:39:51;100740.41;;;15.03;36.01
63700;BME280;49845;47.130;142.766;2023-05-12T06:42:22;100744.00;;;14.99;35.93
63700;BME280;49845;47.130;142.766;2023-05-12T06:44:54;100737.03;;;14.98;35.88
63700;BME280;49845;47.130;142.766;2023-05-12T06:47:24;100738.97;;;14.90;36.28
63700;BME280;49845;47.130;142.766;2023-05-12T06:49:55;100740.88;;;14.85;37.22
63700;BME280;49845;47.130;142.766;2023-05-12T06:52:25;100683.88;;;14.51;38.00
63700;BME280;49845;47.130;142.766;2023-05-12T06:54:56;100740.31;;;14.74;37.79
63700;BME280;49845;47.130;142.766;2023-05-12T06:57:26;100746.47;;;14.73;36.56
63700;BME280;49845;47.130;142.766;2023-05-12T06:59:58;100746.31;;;14.43;36.17
63700;BME280;49845;47.130;142.766;2023-05-12T07:02:32;100747.72;;;14.20;37.20
63700;BME280;49845;47.130;142.766;2023-05-12T07:05:03;100749.59;;;14.15;37.05
63700;BME280;49845;47.130;142.766;2023-05-12T07:07:33;100678.59;;;13.79;37.94
63700;BME280;49845;47.130;142.766;2023-05-12T07:10:05;100756.28;;;13.90;37.06
63700;BME280;49845;47.130;142.766;2023-05-12T07:12:36;100734.94;;;13.66;38.04
63700;BME280;49845;47.130;142.766;2023-05-12T07:15:09;100750.16;;;13.91;38.02
63700;BME280;49845;47.130;142.766;2023-05-12T07:17:40;100752.03;;;13.86;38.34
63700;BME280;49845;47.130;142.766;2023-05-12T07:20:11;100754.41;;;13.96;37.92
63700;BME280;49845;47.130;142.766;2023-05-12T07:22:44;100744.94;;;13.88;37.98
63700;BME280;49845;47.130;142.766;2023-05-12T07:25:14;100750.00;;;13.97;39.12
63700;BME280;49845;47.130;142.766;2023-05-12T07:27:45;100755.53;;;13.85;39.33
63700;BME280;49845;47.130;142.766;2023-05-12T07:30:18;100752.72;;;13.92;39.26
63700;BME280;49845;47.130;142.766;2023-05-12T07:32:49;100750.09;;;13.94;39.05
63700;BME280;49845;47.130;142.766;2023-05-12T07:35:20;100753.88;;;13.80;38.10
63700;BME280;49845;47.130;142.766;2023-05-12T07:37:50;100739.09;;;13.75;39.54
63700;BME280;49845;47.130;142.766;2023-05-12T07:40:21;100747.06;;;13.70;41.14
63700;BME280;49845;47.130;142.766;2023-05-12T07:42:51;100747.75;;;13.80;41.50
63700;BME280;49845;47.130;142.766;2023-05-12T07:45:23;100760.84;;;13.81;40.94
63700;BME280;49845;47.130;142.766;2023-05-12T07:47:54;100755.94;;;13.66;41.32
63700;BME280;49845;47.130;142.766;2023-05-12T07:50:27;100759.41;;;13.68;42.02
63700;BME280;49845;47.130;142.766;2023-05-12T07:52:58;100761.19;;;13.66;42.52
63700;BME280;49845;47.130;142.766;2023-05-12T07:55:28;100749.94;;;13.59;42.48
63700;BME280;49845;47.130;142.766;2023-05-12T07:58:00;100756.97;;;13.57;42.86
63700;BME280;49845;47.130;142.766;2023-05-12T08:00:32;100754.25;;;13.62;43.60
63700;BME280;49845;47.130;142.766;2023-05-12T08:03:04;100752.22;;;13.76;43.42
63700;BME280;49845;47.130;142.766;2023-05-12T08:05:36;100728.06;;;13.59;43.67
63700;BME280;49845;47.130;142.766;2023-05-12T08:08:06;100752.41;;;13.67;44.78
63700;BME280;49845;47.130;142.766;2023-05-12T08:10:43;100760.44;;;13.59;44.77
63700;BME280;49845;47.130;142.766;2023-05-12T08:13:14;100758.13;;;13.46;44.61
63700;BME280;49845;47.130;142.766;2023-05-12T08:15:46;100768.97;;;13.27;44.98
63700;BME280;49845;47.130;142.766;2023-05-12T08:18:18;100767.22;;;13.26;45.37
63700;BME280;49845;47.130;142.766;2023-05-12T08:20:48;100768.13;;;13.24;45.58
63700;BME280;49845;47.130;142.766;2023-05-12T08:23:18;100769.78;;;13.31;46.06
63700;BME280;49845;47.130;142.766;2023-05-12T08:25:49;100773.28;;;13.30;45.87
63700;BME280;49845;47.130;142.766;2023-05-12T08:28:19;100770.72;;;13.27;45.72
63700;BME280;49845;47.130;142.766;2023-05-12T08:30:51;100767.13;;;13.32;45.99
63700;BME280;49845;47.130;142.766;2023-05-12T08:33:22;100768.91;;;13.30;45.95
63700;BME280;49845;47.130;142.766;2023-05-12T08:35:53;100775.97;;;13.25;45.95
63700;BME280;49845;47.130;142.766;2023-05-12T08:38:23;100765.47;;;13.28;46.49
63700;BME280;49845;47.130;142.766;2023-05-12T08:41:11;100769.13;;;13.18;45.81
63700;BME280;49845;47.130;142.766;2023-05-12T08:43:44;100764.22;;;13.00;46.32
63700;BME280;49845;47.130;142.766;2023-05-12T08:46:16;100752.09;;;12.92;46.86
63700;BME280;49845;47.130;142.766;2023-05-12T08:48:49;100753.16;;;12.82;47.14
63700;BME280;49845;47.130;142.766;2023-05-12T08:51:23;100757.75;;;12.71;47.33
63700;BME280;49845;47.130;142.766;2023-05-12T08:53:55;100756.97;;;12.63;47.77
63700;BME280;49845;47.130;142.766;2023-05-12T08:56:26;100758.00;;;12.56;47.91
63700;BME280;49845;47.130;142.766;2023-05-12T08:59:00;100759.78;;;12.54;48.32
63700;BME280;49845;47.130;142.766;2023-05-12T09:01:37;100738.28;;;12.33;48.39
63700;BME280;49845;47.130;142.766;2023-05-12T09:04:10;100751.31;;;12.36;48.80
63700;BME280;49845;47.130;142.766;2023-05-12T09:06:43;100761.81;;;12.35;49.12
63700;BME280;49845;47.130;142.766;2023-05-12T09:09:13;100761.94;;;12.27;49.44
63700;BME280;49845;47.130;142.766;2023-05-12T09:11:49;100758.63;;;12.16;49.86
63700;BME280;49845;47.130;142.766;2023-05-12T09:14:24;100770.03;;;12.13;49.89
63700;BME280;49845;47.130;142.766;2023-05-12T09:16:59;100765.03;;;11.96;50.27
63700;BME280;49845;47.130;142.766;2023-05-12T09:19:35;100761.78;;;11.76;50.64
63700;BME280;49845;47.130;142.766;2023-05-12T09:22:08;100764.72;;;11.51;51.04
63700;BME280;49845;47.130;142.766;2023-05-12T09:24:43;100752.69;;;11.35;51.79
63700;BME280;49845;47.130;142.766;2023-05-12T09:27:23;100704.28;;;10.97;52.38
63700;BME280;49845;47.130;142.766;2023-05-12T09:29:55;100746.97;;;10.99;52.79
63700;BME280;49845;47.130;142.766;2023-05-12T09:32:34;100710.66;;;10.68;53.44
63700;BME280;49845;47.130;142.766;2023-05-12T09:35:05;100764.69;;;10.68;54.34
63700;BME280;49845;47.130;142.766;2023-05-12T09:37:38;100779.59;;;10.55;54.70
63700;BME280;49845;47.130;142.766;2023-05-12T09:40:09;100788.50;;;10.31;55.69
63700;BME280;49845;47.130;142.766;2023-05-12T09:43:03;100774.69;;;10.09;56.27
63700;BME280;49845;47.130;142.766;2023-05-12T09:45:40;100782.56;;;9.98;56.88
63700;BME280;49845;47.130;142.766;2023-05-12T09:48:13;100787.00;;;9.82;57.28
63700;BME280;49845;47.130;142.766;2023-05-12T09:50:44;100778.38;;;9.71;57.82
63700;BME280;49845;47.130;142.766;2023-05-12T09:53:15;100770.63;;;9.54;57.89
63700;BME280;49845;47.130;142.766;2023-05-12T09:55:47;100792.34;;;9.55;58.56
63700;BME280;49845;47.130;142.766;2023-05-12T09:58:18;100725.56;;;9.07;58.50
63700;BME280;49845;47.130;142.766;2023-05-12T10:00:51;100788.91;;;9.46;59.06
63700;BME280;49845;47.130;142.766;2023-05-12T10:03:49;100797.59;;;9.42;58.95
63700;BME280;49845;47.130;142.766;2023-05-12T10:06:30;100797.69;;;9.15;59.38
63700;BME280;49845;47.130;142.766;2023-05-12T10:09:05;100794.22;;;9.00;60.16
63700;BME280;49845;47.130;142.766;2023-05-12T10:11:39;100812.47;;;8.93;60.49
63700;BME280;49845;47.130;142.766;2023-05-12T10:14:16;100794.25;;;8.79;60.72
63700;BME280;49845;47.130;142.766;2023-05-12T10:16:50;100811.59;;;8.71;61.51
63700;BME280;49845;47.130;142.766;2023-05-12T10:19:24;100814.22;;;8.55;62.34
63700;BME280;49845;47.130;142.766;2023-05-12T10:21:56;100823.75;;;8.53;62.89
63700;BME280;49845;47.130;142.766;2023-05-12T10:24:30;100816.81;;;8.46;62.68
63700;BME280;49845;47.130;142.766;2023-05-12T10:27:04;100815.91;;;8.36;62.99
63700;BME280;49845;47.130;142.766;2023-05-12T10:29:36;100806.31;;;8.12;63.57
63700;BME280;49845;47.130;142.766;2023-05-12T10:32:08;100830.63;;;8.14;64.00
63700;BME280;49845;47.130;142.766;2023-05-12T10:34:44;100819.28;;;8.00;64.49
63700;BME280;49845;47.130;142.766;2023-05-12T10:37:23;100833.16;;;8.04;64.74
63700;BME280;49845;47.130;142.766;2023-05-12T10:39:57;100827.13;;;8.09;64.37
63700;BME280;49845;47.130;142.766;2023-05-12T10:42:39;100819.28;;;7.95;64.57
63700;BME280;49845;47.130;142.766;2023-05-12T10:45:19;100842.66;;;7.91;65.06
63700;BME280;49845;47.130;142.766;2023-05-12T10:47:50;100846.94;;;7.75;65.85
63700;BME280;49845;47.130;142.766;2023-05-12T10:50:29;100845.16;;;7.60;66.26
63700;BME280;49845;47.130;142.766;2023-05-12T10:52:59;100837.34;;;7.57;66.94
63700;BME280;49845;47.130;142.766;2023-05-12T10:55:34;100844.31;;;7.64;66.76
63700;BME280;49845;47.130;142.766;2023-05-12T10:58:09;100850.28;;;7.46;66.51
63700;BME280;49845;47.130;142.766;2023-05-12T11:00:48;100843.13;;;7.11;66.86
63700;BME280;49845;47.130;142.766;2023-05-12T11:03:23;100840.28;;;6.81;67.81
63700;BME280;49845;47.130;142.766;2023-05-12T11:06:06;100847.97;;;6.68;68.34
63700;BME280;49845;47.130;142.766;2023-05-12T11:08:43;100872.13;;;6.60;68.79
63700;BME280;49845;47.130;142.766;2023-05-12T11:11:18;100756.03;;;5.64;69.40
63700;BME280;49845;47.130;142.766;2023-05-12T11:13:51;100848.13;;;6.01;70.15
63700;BME280;49845;47.130;142.766;2023-05-12T11:16:22;100882.91;;;6.16;70.55
63700;BME280;49845;47.130;142.766;2023-05-12T11:19:01;100837.41;;;5.72;71.17
63700;BME280;49845;47.130;142.766;2023-05-12T11:21:34;100842.50;;;5.65;71.78
63700;BME280;49845;47.130;142.766;2023-05-12T11:24:06;100873.63;;;5.68;72.51
63700;BME280;49845;47.130;142.766;2023-05-12T11:26:41;100896.19;;;5.72;72.71
63700;BME280;49845;47.130;142.766;2023-05-12T11:29:12;100902.75;;;5.48;73.24
63700;BME280;49845;47.130;142.766;2023-05-12T11:31:49;100812.81;;;4.83;74.06
63700;BME280;49845;47.130;142.766;2023-05-12T11:34:21;100898.94;;;5.25;74.33
63700;BME280;49845;47.130;142.766;2023-05-12T11:36:54;100894.44;;;5.13;75.12
63700;BME280;49845;47.130;142.766;2023-05-12T11:39:26;100829.09;;;4.74;75.39
63700;BME280;49845;47.130;142.766;2023-05-12T11:42:11;100867.28;;;4.88;75.89
63700;BME280;49845;47.130;142.766;2023-05-12T11:44:47;100907.31;;;5.08;76.56
63700;BME280;49845;47.130;142.766;2023-05-12T11:47:19;100895.22;;;5.07;76.99
63700;BME280;49845;47.130;142.766;2023-05-12T11:49:50;100882.16;;;5.00;77.30
63700;BME280;49845;47.130;142.766;2023-05-12T11:52:24;100900.44;;;5.10;77.58
63700;BME280;49845;47.130;142.766;2023-05-12T11:55:00;100898.75;;;5.12;77.55
63700;BME280;49845;47.130;142.766;2023-05-12T11:57:33;100869.00;;;4.89;77.75
63700;BME280;49845;47.130;142.766;2023-05-12T12:00:07;100908.28;;;5.15;77.81
63700;BME280;49845;47.130;142.766;2023-05-12T12:02:38;100911.81;;;5.22;78.04
63700;BME280;49845;47.130;142.766;2023-05-12T12:05:19;100909.25;;;5.22;77.95
63700;BME280;49845;47.130;142.766;2023-05-12T12:08:03;100912.69;;;5.21;77.89
63700;BME280;49845;47.130;142.766;2023-05-12T12:10:34;100909.16;;;5.15;78.49
63700;BME280;49845;47.130;142.766;2023-05-12T12:13:07;100912.59;;;5.14;78.24
63700;BME280;49845;47.130;142.766;2023-05-12T12:15:40;100915.97;;;5.10;77.92
63700;BME280;49845;47.130;142.766;2023-05-12T12:18:14;100903.72;;;5.00;77.86
63700;BME280;49845;47.130;142.766;2023-05-12T12:20:45;100933.03;;;4.99;77.78
63700;BME280;49845;47.130;142.766;2023-05-12T12:23:18;100928.19;;;4.69;77.94
63700;BME280;49845;47.130;142.766;2023-05-12T12:25:58;100911.44;;;4.47;79.48
63700;BME280;49845;47.130;142.766;2023-05-12T12:28:29;100913.03;;;4.42;80.16
63700;BME280;49845;47.130;142.766;2023-05-12T12:31:04;100891.13;;;4.23;80.61
63700;BME280;49845;47.130;142.766;2023-05-12T12:33:35;100924.91;;;4.30;80.72
63700;BME280;49845;47.130;142.766;2023-05-12T12:36:09;100926.53;;;4.25;81.32
63700;BME280;49845;47.130;142.766;2023-05-12T12:38:42;100922.13;;;4.21;82.20
63700;BME280;49845;47.130;142.766;2023-05-12T12:41:12;100906.50;;;4.17;82.59
63700;BME280;49845;47.130;142.766;2023-05-12T12:44:02;100917.84;;;4.23;82.75
63700;BME280;49845;47.130;142.766;2023-05-12T12:46:38;100917.00;;;4.23;82.93
63700;BME280;49845;47.130;142.766;2023-05-12T12:49:14;100916.22;;;4.28;83.10
63700;BME280;49845;47.130;142.766;2023-05-12T12:51:46;100916.28;;;4.31;82.64
63700;BME280;49845;47.130;142.766;2023-05-12T12:54:20;100923.09;;;4.26;82.81
63700;BME280;49845;47.130;142.766;2023-05-12T12:56:54;100925.53;;;4.19;82.74
63700;BME280;49845;47.130;142.766;2023-05-12T12:59:25;100923.59;;;4.08;83.08